Time;durP1;ratioP1;P1;durP2;ratioP2;P2;SDS_P1;SDS_P2;PMS_P1;PMS_P2;Temp;Humidity;BMP_temperature;BMP_pressure;BME280_temperature;BME280_humidity;BME280_pressure;Samples;Min_cycle;Max_cycle;Signal;HPM_P1;HPM_P2
2022/04/06 00:01:51;;;;;;;21.80;10.55;;;;;;;5.89;76.51;99102.84;1784825;80;25485;-77
2022/04/06 00:04:18;;;;;;;18.82;10.28;;;;;;;5.89;76.55;99104.16;1762575;79;28238;-78
2022/04/06 00:06:44;;;;;;;20.40;10.40;;;;;;;5.90;77.07;99114.59;1775595;80;25832;-77
2022/04/06 00:09:10;;;;;;;18.37;8.55;;;;;;;5.91;77.29;99107.45;1784645;80;25783;-77
2022/04/06 00:11:36;;;;;;;15.65;9.50;;;;;;;5.90;77.83;99099.98;1784852;80;26260;-77
2022/04/06 00:14:03;;;;;;;16.65;9.73;;;;;;;5.89;78.52;99108.16;1784866;80;25365;-77
2022/04/06 00:16:29;;;;;;;14.80;9.05;;;;;;;5.90;78.52;99119.11;1784395;80;27515;-77
2022/04/06 00:18:56;;;;;;;16.17;8.88;;;;;;;5.90;79.15;99121.77;1784561;80;25833;-77
2022/04/06 00:21:25;;;;;;;14.35;8.60;;;;;;;5.92;79.43;99115.22;1786526;80;25533;-77
2022/04/06 00:23:50;;;;;;;21.75;10.98;;;;;;;5.93;79.11;99106.75;1784766;80;25614;-77
2022/04/06 00:26:16;;;;;;;16.42;9.35;;;;;;;5.94;79.63;99106.58;1783326;80;25597;-77
2022/04/06 00:28:42;;;;;;;16.40;9.28;;;;;;;5.93;80.64;99108.08;1782904;80;27491;-77
2022/04/06 00:31:08;;;;;;;18.10;10.38;;;;;;;5.94;80.18;99097.77;1783053;80;26455;-77
2022/04/06 00:33:35;;;;;;;19.45;11.60;;;;;;;5.95;81.18;99104.22;1770829;80;25895;-77
2022/04/06 00:36:01;;;;;;;15.35;10.10;;;;;;;5.96;81.44;99113.84;1783009;80;26401;-77
2022/04/06 00:38:27;;;;;;;19.37;10.90;;;;;;;6.00;81.00;99117.76;1771925;80;25810;-77
2022/04/06 00:40:53;;;;;;;16.12;9.63;;;;;;;6.02;80.76;99114.40;1782819;80;27438;-78
2022/04/06 00:43:20;;;;;;;15.53;9.48;;;;;;;6.05;81.26;99106.55;1782204;79;25866;-77
2022/04/06 00:45:46;;;;;;;18.52;9.65;;;;;;;6.08;81.78;99099.50;1783107;80;26453;-77
2022/04/06 00:48:13;;;;;;;13.15;9.18;;;;;;;6.08;81.51;99092.35;1782345;80;25819;-77
2022/04/06 00:50:42;;;;;;;17.32;10.78;;;;;;;6.10;81.82;99105.44;1783392;80;25779;-77
2022/04/06 00:53:11;;;;;;;14.85;10.20;;;;;;;6.09;82.01;99096.64;1780441;80;27700;-77
2022/04/06 00:55:39;;;;;;;18.62;10.58;;;;;;;6.10;81.87;99096.13;1770307;80;26522;-77
2022/04/06 00:58:07;;;;;;;19.12;10.95;;;;;;;6.13;82.28;99098.42;1780296;80;26360;-77
2022/04/06 01:00:34;;;;;;;14.35;9.25;;;;;;;6.16;82.13;99092.69;1782737;80;25861;-77
2022/04/06 01:03:01;;;;;;;15.43;9.35;;;;;;;6.18;82.16;99091.48;1782651;80;25937;-77
2022/04/06 01:05:27;;;;;;;17.12;11.55;;;;;;;6.22;81.99;99098.59;1759450;80;27442;-77
2022/04/06 01:07:56;;;;;;;14.98;9.70;;;;;;;6.24;82.15;99096.02;1752104;80;25750;-77
2022/04/06 01:10:23;;;;;;;16.02;8.30;;;;;;;6.26;82.46;99100.34;1781875;80;25833;-77
2022/04/06 01:12:51;;;;;;;13.98;10.05;;;;;;;6.28;83.50;99099.63;1782668;80;26544;-77
2022/04/06 01:15:18;;;;;;;15.00;9.90;;;;;;;6.29;82.92;99101.28;1767181;80;26510;-77
2022/04/06 01:17:45;;;;;;;13.95;9.25;;;;;;;6.31;82.86;99093.40;1752481;80;28544;-78
2022/04/06 01:20:13;;;;;;;16.23;9.63;;;;;;;6.32;82.94;99096.39;1780847;80;25173;-78
2022/04/06 01:22:39;;;;;;;13.53;9.73;;;;;;;6.34;82.67;99102.83;1782421;80;26437;-78
2022/04/06 01:25:07;;;;;;;14.95;9.28;;;;;;;6.35;82.77;99103.95;1730803;80;25817;-78
2022/04/06 01:27:34;;;;;;;17.95;10.85;;;;;;;6.36;82.86;99103.45;1744820;81;26625;-78
2022/04/06 01:30:02;;;;;;;17.42;10.03;;;;;;;6.36;82.91;99087.00;1753860;81;27428;-78
2022/04/06 01:32:36;;;;;;;12.23;8.93;;;;;;;6.38;83.02;99082.30;1753110;81;25785;-78
2022/04/06 01:35:00;;;;;;;14.53;10.05;;;;;;;6.38;83.55;99083.62;1752283;81;25775;-78
2022/04/06 01:37:28;;;;;;;12.95;9.50;;;;;;;6.37;83.34;99083.83;1753446;81;25824;-78
2022/04/06 01:39:54;;;;;;;14.93;9.85;;;;;;;6.37;83.79;99078.02;1753530;81;26071;-77
2022/04/06 01:42:21;;;;;;;11.75;9.03;;;;;;;6.36;83.60;99084.34;1752761;81;27524;-78
2022/04/06 01:44:49;;;;;;;14.30;9.68;;;;;;;6.37;84.22;99082.50;1754876;81;25766;-78
2022/04/06 01:47:18;;;;;;;15.18;9.65;;;;;;;6.37;83.84;99081.17;1754783;81;25540;-78
2022/04/06 01:52:32;;;;;;;15.38;10.05;;;;;;;6.37;85.05;99092.64;1743247;81;25799;-78
2022/04/06 01:55:09;;;;;;;15.35;9.85;;;;;;;6.21;84.66;99098.26;1753167;81;27439;-78
2022/04/06 01:57:36;;;;;;;15.78;9.43;;;;;;;6.03;83.66;99108.05;1753447;81;25892;-78
2022/04/06 02:00:09;;;;;;;16.62;10.43;;;;;;;5.80;83.70;99121.22;1753769;81;25738;-78
2022/04/06 02:02:38;;;;;;;18.20;10.90;;;;;;;5.61;83.56;99125.86;1732078;81;25732;-78
2022/04/06 02:05:07;;;;;;;17.20;10.68;;;;;;;5.46;83.29;99125.94;1742252;81;25809;-78
2022/04/06 02:07:33;;;;;;;14.55;9.00;;;;;;;5.40;83.47;99128.86;1753328;81;28289;-78
2022/04/06 02:10:02;;;;;;;18.07;10.70;;;;;;;5.33;83.85;99133.77;1752950;81;26077;-78
2022/04/06 02:12:29;;;;;;;16.42;10.45;;;;;;;5.26;84.24;99126.27;1730813;81;25993;-78
2022/04/06 02:14:56;;;;;;;16.35;10.20;;;;;;;5.20;84.39;99137.11;1749340;81;25643;-78
2022/04/06 02:17:22;;;;;;;16.20;10.40;;;;;;;5.14;83.91;99135.21;1739444;80;25575;-78
2022/04/06 02:19:48;;;;;;;18.77;11.35;;;;;;;5.10;84.28;99136.59;1732897;81;28300;-78
2022/04/06 02:22:15;;;;;;;17.70;10.28;;;;;;;5.08;84.22;99137.30;1752876;81;25973;-77
2022/04/06 02:24:41;;;;;;;20.80;10.58;;;;;;;5.08;84.20;99129.83;1753670;80;25811;-77
2022/04/06 02:27:08;;;;;;;18.50;11.95;;;;;;;5.08;84.27;99129.33;1747077;80;25780;-77
2022/04/06 02:29:36;;;;;;;16.97;11.33;;;;;;;5.09;84.20;99125.66;1747199;81;25799;-77
2022/04/06 02:32:03;;;;;;;16.07;11.18;;;;;;;5.11;84.20;99120.18;1753234;81;27449;-77
2022/04/06 02:34:30;;;;;;;17.30;12.33;;;;;;;5.11;84.11;99126.28;1723792;81;25769;-77
2022/04/06 02:36:56;;;;;;;17.55;11.45;;;;;;;5.13;84.21;99138.86;1734698;81;26612;-78
2022/04/06 02:39:22;;;;;;;18.00;11.63;;;;;;;5.13;84.37;99138.06;1753924;81;25782;-77
2022/04/06 02:41:49;;;;;;;17.42;11.75;;;;;;;5.10;84.43;99145.06;1753409;81;25867;-78
2022/04/06 02:44:15;;;;;;;18.32;12.55;;;;;;;5.06;84.65;99141.97;1724486;81;26965;-77
2022/04/06 02:46:44;;;;;;;24.12;13.05;;;;;;;5.05;84.49;99146.11;1730638;81;25984;-78
2022/04/06 02:49:10;;;;;;;17.73;11.35;;;;;;;5.07;84.61;99155.54;1753516;81;26103;-78
2022/04/06 02:51:37;;;;;;;25.27;13.20;;;;;;;5.11;84.73;99167.42;1753527;81;26236;-77
2022/04/06 02:54:03;;;;;;;22.05;12.47;;;;;;;5.10;84.68;99153.85;1753709;81;25767;-77
2022/04/06 02:56:30;;;;;;;15.50;10.28;;;;;;;5.11;84.58;99154.68;1753643;81;28380;-77
2022/04/06 02:58:56;;;;;;;18.65;12.20;;;;;;;5.09;84.60;99164.13;1753492;81;25790;-77
2022/04/06 03:01:22;;;;;;;20.80;12.73;;;;;;;5.07;84.49;99171.46;1753147;81;25787;-77
2022/04/06 03:03:49;;;;;;;19.70;11.73;;;;;;;5.05;85.12;99176.13;1752991;81;25882;-77
2022/04/06 03:06:16;;;;;;;23.30;12.33;;;;;;;5.02;84.95;99172.55;1751556;81;25704;-78
2022/04/06 03:08:44;;;;;;;17.98;11.68;;;;;;;5.01;84.88;99171.38;1753790;81;27460;-77
2022/04/06 03:11:10;;;;;;;15.08;10.88;;;;;;;5.01;84.79;99180.67;1754781;81;25570;-77
2022/04/06 03:13:36;;;;;;;22.62;11.12;;;;;;;4.98;84.97;99173.92;1746383;81;25914;-76
2022/04/06 03:16:03;;;;;;;16.12;10.93;;;;;;;4.94;84.77;99159.36;1753308;81;26219;-77
2022/04/06 03:18:30;;;;;;;16.00;11.12;;;;;;;4.96;85.05;99174.59;1752594;81;25870;-76
2022/04/06 03:20:56;;;;;;;19.92;11.78;;;;;;;4.98;85.13;99176.58;1746789;81;28362;-77
2022/04/06 03:23:22;;;;;;;18.48;12.00;;;;;;;5.01;85.12;99178.02;1696330;83;25748;-77
2022/04/06 03:25:49;;;;;;;14.30;9.78;;;;;;;5.03;85.18;99180.80;1758562;80;25314;-76
2022/04/06 03:28:16;;;;;;;19.07;11.28;;;;;;;5.03;85.01;99188.77;1766321;81;25774;-77
2022/04/06 03:30:43;;;;;;;17.12;10.60;;;;;;;5.04;85.10;99197.06;1766747;80;25961;-77
2022/04/06 03:33:09;;;;;;;15.85;10.23;;;;;;;5.04;85.14;99193.08;1747145;81;27599;-76
2022/04/06 03:35:36;;;;;;;13.83;10.32;;;;;;;5.03;85.17;99190.09;1766587;80;25757;-76
2022/04/06 03:38:02;;;;;;;15.20;11.33;;;;;;;5.04;85.16;99194.91;1766494;81;25700;-77
2022/04/06 03:40:29;;;;;;;15.68;10.50;;;;;;;5.05;85.18;99202.67;1766768;80;26202;-77
2022/04/06 03:42:56;;;;;;;15.83;10.65;;;;;;;5.05;85.22;99206.66;1759978;81;25925;-77
2022/04/06 03:45:23;;;;;;;17.82;11.20;;;;;;;5.04;85.10;99208.17;1753046;81;27463;-77
2022/04/06 03:47:49;;;;;;;26.27;15.28;;;;;;;5.05;85.40;99207.98;1745034;80;25891;-77
2022/04/06 03:50:16;;;;;;;24.52;14.87;;;;;;;5.06;85.25;99206.98;1736594;81;25833;-77
2022/04/06 03:52:42;;;;;;;16.97;11.65;;;;;;;5.10;85.29;99202.13;1744752;81;26241;-77
2022/04/06 03:55:10;;;;;;;19.60;11.93;;;;;;;5.12;85.40;99207.56;1761721;79;25993;-77
2022/04/06 03:57:38;;;;;;;24.85;13.98;;;;;;;5.14;85.28;99204.72;1743562;81;27463;-77
2022/04/06 04:00:08;;;;;;;19.15;11.50;;;;;;;5.14;85.31;99214.00;1753872;81;25816;-78
2022/04/06 04:02:36;;;;;;;20.60;11.90;;;;;;;5.18;85.33;99221.41;1756834;81;25674;-77
2022/04/06 04:05:03;;;;;;;15.48;9.98;;;;;;;5.22;85.25;99220.53;1747344;80;25705;-78
2022/04/06 04:07:30;;;;;;;17.42;10.80;;;;;;;5.25;85.19;99220.17;1753611;81;26437;-78
2022/04/06 04:09:57;;;;;;;16.37;10.58;;;;;;;5.27;85.13;99225.62;1766345;81;28033;-78
2022/04/06 04:12:23;;;;;;;18.37;11.20;;;;;;;5.29;85.16;99217.45;1765240;81;25831;-78
2022/04/06 04:14:49;;;;;;;16.17;10.98;;;;;;;5.31;85.09;99223.41;1766560;81;26144;-78
2022/04/06 04:17:15;;;;;;;17.15;11.38;;;;;;;5.33;85.11;99218.73;1766502;80;25843;-78
2022/04/06 04:19:41;;;;;;;20.65;11.20;;;;;;;5.31;85.10;99229.55;1766887;81;25928;-78
2022/04/06 04:22:08;;;;;;;14.05;9.93;;;;;;;5.30;84.97;99235.84;1766405;81;27435;-78
2022/04/06 04:24:34;;;;;;;17.57;10.70;;;;;;;5.24;84.85;99237.09;1766686;80;25768;-78
2022/04/06 04:27:00;;;;;;;18.17;11.00;;;;;;;5.19;84.94;99231.54;1752961;81;26010;-78
2022/04/06 04:29:26;;;;;;;16.97;11.63;;;;;;;5.18;85.02;99231.20;1755944;80;26700;-77
2022/04/06 04:31:52;;;;;;;16.15;11.35;;;;;;;5.14;85.11;99237.39;1756461;80;26532;-78
2022/04/06 04:34:19;;;;;;;17.77;11.65;;;;;;;5.11;85.26;99235.62;1763612;81;27598;-78
2022/04/06 04:36:45;;;;;;;15.23;10.68;;;;;;;5.13;85.43;99238.92;1766778;81;25772;-78
2022/04/06 04:39:11;;;;;;;14.28;10.18;;;;;;;5.14;85.76;99240.55;1766691;81;25666;-78
2022/04/06 04:41:38;;;;;;;16.23;11.95;;;;;;;5.08;85.88;99243.45;1766469;80;25747;-78
2022/04/06 04:44:04;;;;;;;14.78;10.23;;;;;;;5.00;85.67;99240.07;1766239;81;25718;-78
2022/04/06 04:46:30;;;;;;;7.92;6.90;;;;;;;5.02;85.71;99236.73;1763417;81;27440;-78
2022/04/06 04:48:56;;;;;;;12.70;7.65;;;;;;;4.95;85.40;99241.95;1751474;81;26474;-78
2022/04/06 04:51:25;;;;;;;9.43;6.05;;;;;;;4.90;85.44;99242.98;1749591;81;25905;-78
2022/04/06 04:53:51;;;;;;;9.68;6.65;;;;;;;4.90;85.34;99248.82;1750977;81;25839;-78
2022/04/06 04:56:18;;;;;;;8.73;6.35;;;;;;;4.88;85.67;99235.72;1749526;81;25812;-78
2022/04/06 04:58:44;;;;;;;13.75;7.62;;;;;;;4.81;85.51;99230.84;1749905;81;28299;-78
2022/04/06 05:01:10;;;;;;;12.85;7.53;;;;;;;4.81;86.03;99236.65;1752954;81;25744;-78
2022/04/06 05:03:37;;;;;;;8.90;6.80;;;;;;;4.80;85.79;99238.47;1746508;81;25990;-78
2022/04/06 05:06:03;;;;;;;10.28;7.03;;;;;;;4.83;86.05;99240.77;1751978;81;25706;-78
2022/04/06 05:08:29;;;;;;;9.83;7.17;;;;;;;4.83;86.09;99250.05;1733279;81;25795;-78
2022/04/06 05:10:55;;;;;;;7.65;6.15;;;;;;;4.87;86.06;99255.81;1753401;81;28322;-78
2022/04/06 05:13:21;;;;;;;8.45;6.15;;;;;;;4.90;85.95;99256.26;1751611;81;25891;-78
2022/04/06 05:15:47;;;;;;;8.98;6.05;;;;;;;4.94;85.91;99265.49;1755056;81;25760;-78
2022/04/06 05:18:14;;;;;;;8.58;6.08;;;;;;;4.99;86.07;99263.62;1747710;80;26169;-78
2022/04/06 05:20:40;;;;;;;10.32;6.37;;;;;;;4.98;85.75;99268.63;1751793;81;26231;-78
2022/04/06 05:23:07;;;;;;;9.28;5.65;;;;;;;5.00;85.77;99273.24;1753083;81;27461;-78
2022/04/06 05:25:33;;;;;;;6.53;5.20;;;;;;;5.04;85.76;99279.83;1739905;81;25841;-78
2022/04/06 05:27:59;;;;;;;9.55;5.62;;;;;;;5.06;85.63;99275.98;1757530;81;25822;-78
2022/04/06 05:30:26;;;;;;;8.55;5.00;;;;;;;5.09;85.45;99272.95;1772355;80;26501;-78
2022/04/06 05:32:55;;;;;;;6.37;4.40;;;;;;;5.16;85.43;99277.02;1783103;80;25723;-78
2022/04/06 05:35:24;;;;;;;7.95;4.70;;;;;;;5.20;85.35;99277.80;1782726;80;27447;-78
2022/04/06 05:37:51;;;;;;;6.85;4.33;;;;;;;5.21;85.09;99285.27;1783951;80;25693;-78
2022/04/06 05:40:19;;;;;;;8.58;5.10;;;;;;;5.21;84.70;99290.58;1782687;80;25808;-77
2022/04/06 05:42:46;;;;;;;6.95;4.58;;;;;;;5.20;84.41;99293.72;1764895;80;26470;-78
2022/04/06 05:45:14;;;;;;;8.15;5.60;;;;;;;5.21;84.33;99302.52;1752007;81;26060;-78
2022/04/06 05:47:41;;;;;;;7.37;5.83;;;;;;;5.20;84.25;99301.69;1741989;81;27459;-78
2022/04/06 05:50:10;;;;;;;5.97;4.92;;;;;;;5.21;84.27;99296.71;1757384;81;25804;-78
2022/04/06 05:52:36;;;;;;;6.95;4.80;;;;;;;5.23;84.25;99297.84;1757943;81;25838;-78
2022/04/06 05:55:04;;;;;;;7.20;5.50;;;;;;;5.25;84.27;99298.48;1782579;80;26203;-78
2022/04/06 05:57:30;;;;;;;6.72;5.25;;;;;;;5.26;84.37;99295.64;1758508;81;25872;-78
2022/04/06 05:59:57;;;;;;;8.83;5.20;;;;;;;5.25;84.20;99292.67;1779284;79;28604;-78
2022/04/06 06:02:24;;;;;;;6.20;4.20;;;;;;;5.26;84.25;99305.45;1751251;81;25780;-78
2022/04/06 06:04:52;;;;;;;5.90;4.70;;;;;;;5.22;83.99;99306.80;1762594;80;25866;-78
2022/04/06 06:07:20;;;;;;;9.40;4.95;;;;;;;5.19;83.96;99314.66;1781241;80;26256;-78
2022/04/06 06:09:47;;;;;;;5.85;4.40;;;;;;;5.17;84.09;99310.53;1783233;80;25827;-78
2022/04/06 06:12:14;;;;;;;8.05;4.42;;;;;;;5.15;84.03;99313.88;1782955;80;27438;-78
2022/04/06 06:14:41;;;;;;;6.28;4.90;;;;;;;5.12;84.44;99313.73;1783229;80;25863;-78
2022/04/06 06:17:07;;;;;;;5.95;4.17;;;;;;;5.09;84.57;99315.41;1783122;80;25295;-75
2022/04/06 06:19:33;;;;;;;9.85;5.25;;;;;;;5.09;84.81;99318.06;1783499;80;25917;-75
2022/04/06 06:22:00;;;;;;;9.75;6.30;;;;;;;5.08;84.99;99317.77;1756525;80;25995;-75
2022/04/06 06:24:26;;;;;;;7.33;5.37;;;;;;;5.08;85.09;99312.45;1782113;80;27428;-75
2022/04/06 06:26:53;;;;;;;6.58;5.70;;;;;;;5.10;85.38;99315.75;1774222;80;25693;-75
2022/04/06 06:29:19;;;;;;;8.05;6.67;;;;;;;5.14;85.47;99314.37;1756830;80;25792;-75
2022/04/06 06:31:46;;;;;;;8.85;6.60;;;;;;;5.19;85.76;99313.83;1727584;81;26513;-75
2022/04/06 06:34:12;;;;;;;7.33;6.00;;;;;;;5.22;85.82;99316.92;1756966;80;25765;-76
2022/04/06 06:36:39;;;;;;;8.78;6.30;;;;;;;5.23;85.60;99321.24;1727479;81;27491;-76
2022/04/06 06:39:05;;;;;;;8.65;6.17;;;;;;;5.22;85.60;99310.78;1727761;81;26434;-75
2022/04/06 06:41:31;;;;;;;8.13;5.90;;;;;;;5.20;85.59;99314.13;1738875;80;25809;-75
2022/04/06 06:43:58;;;;;;;13.60;7.10;;;;;;;5.25;85.97;99317.90;1755332;80;26348;-75
2022/04/06 06:46:25;;;;;;;7.75;6.45;;;;;;;5.23;85.79;99309.80;1771289;80;25781;-75
2022/04/06 06:49:00;;;;;;;7.53;6.30;;;;;;;5.30;86.11;99315.49;1776138;80;27445;-75
2022/04/06 06:51:23;;;;;;;9.40;6.28;;;;;;;5.36;86.20;99313.45;1782857;79;25995;-75
2022/04/06 06:53:50;;;;;;;6.87;6.05;;;;;;;5.39;85.84;99313.56;1751817;81;25871;-75
2022/04/06 06:56:16;;;;;;;6.87;5.87;;;;;;;5.41;86.01;99306.23;1756660;81;25803;-75
2022/04/06 06:58:42;;;;;;;10.90;5.92;;;;;;;5.44;85.96;99307.20;1785355;80;25748;-75
2022/04/06 07:01:09;;;;;;;8.63;5.55;;;;;;;5.44;85.92;99309.36;1773537;80;28778;-76
2022/04/06 07:03:35;;;;;;;7.28;5.17;;;;;;;5.43;85.83;99304.25;1775720;80;25902;-75
2022/04/06 07:06:02;;;;;;;8.03;7.08;;;;;;;5.42;85.85;99307.41;1754341;80;25810;-75
2022/04/06 07:08:28;;;;;;;12.98;9.28;;;;;;;5.43;86.10;99302.92;1768057;80;25986;-75
2022/04/06 07:10:55;;;;;;;13.88;10.58;;;;;;;5.44;85.93;99304.55;1785020;80;25930;-75
2022/04/06 07:13:22;;;;;;;12.65;10.55;;;;;;;5.46;86.14;99306.52;1784768;80;27446;-75
2022/04/06 07:15:48;;;;;;;14.47;8.63;;;;;;;5.46;85.95;99309.17;1784947;80;25934;-75
2022/04/06 07:18:17;;;;;;;9.15;6.50;;;;;;;5.45;85.90;99303.55;1785103;80;26577;-75
2022/04/06 07:20:42;;;;;;;9.08;7.85;;;;;;;5.45;86.27;99308.34;1777753;80;25791;-75
2022/04/06 07:23:09;;;;;;;8.70;7.42;;;;;;;5.44;86.14;99306.70;1773300;80;26131;-75
2022/04/06 07:25:35;;;;;;;9.58;8.15;;;;;;;5.46;86.33;99306.52;1784448;79;27452;-76
2022/04/06 07:28:03;;;;;;;15.93;11.68;;;;;;;5.49;86.74;99302.17;1782930;80;25755;-75
2022/04/06 07:30:30;;;;;;;19.35;13.40;;;;;;;5.54;86.90;99299.77;1769993;80;25754;-75
2022/04/06 07:32:58;;;;;;;19.10;13.25;;;;;;;5.56;86.89;99304.38;1746706;81;26428;-75
2022/04/06 07:35:25;;;;;;;22.77;16.27;;;;;;;5.59;87.08;99294.73;1733046;81;25769;-75
2022/04/06 07:37:51;;;;;;;18.37;13.10;;;;;;;5.61;87.22;99305.98;1743934;81;28402;-75
2022/04/06 07:40:21;;;;;;;16.05;13.15;;;;;;;5.65;87.18;99297.95;1751764;81;26444;-75
2022/04/06 07:42:51;;;;;;;14.00;12.10;;;;;;;5.69;87.21;99300.55;1751919;81;25709;-76
2022/04/06 07:45:20;;;;;;;12.03;9.68;;;;;;;5.73;87.43;99301.83;1749462;81;25778;-75
2022/04/06 07:47:52;;;;;;;9.83;8.83;;;;;;;5.72;87.01;99299.36;1728211;81;25924;-76
2022/04/06 07:50:21;;;;;;;8.13;6.95;;;;;;;5.65;86.92;99294.47;1731695;81;28272;-76
2022/04/06 07:52:48;;;;;;;11.33;9.03;;;;;;;5.60;87.12;99292.41;1757776;81;25898;-76
2022/04/06 07:55:15;;;;;;;10.78;9.70;;;;;;;5.60;87.45;99288.91;1753765;80;25604;-75
2022/04/06 07:57:42;;;;;;;14.20;10.60;;;;;;;5.66;87.76;99292.98;1773478;80;26532;-75
2022/04/06 08:00:12;;;;;;;14.87;11.10;;;;;;;5.69;87.74;99289.12;1758019;81;25954;-75
2022/04/06 08:02:38;;;;;;;20.37;12.17;;;;;;;5.69;87.55;99290.46;1758271;81;26902;-75
2022/04/06 08:05:05;;;;;;;16.17;11.75;;;;;;;5.64;87.37;99296.33;1782900;80;25750;-75
2022/04/06 08:07:33;;;;;;;13.75;11.48;;;;;;;5.66;87.61;99301.45;1765377;80;26014;-75
2022/04/06 08:09:59;;;;;;;14.30;11.68;;;;;;;5.69;87.67;99301.09;1772459;80;26017;-75
2022/04/06 08:12:26;;;;;;;14.28;12.20;;;;;;;5.70;87.65;99300.89;1782575;80;25290;-75
2022/04/06 08:14:52;;;;;;;10.85;8.73;;;;;;;5.72;87.83;99308.16;1783260;80;28303;-75
2022/04/06 08:17:19;;;;;;;10.30;8.15;;;;;;;5.70;87.41;99317.33;1782977;80;25913;-75
2022/04/06 08:19:45;;;;;;;9.85;8.05;;;;;;;5.68;87.33;99316.20;1783348;80;26451;-75
2022/04/06 08:22:11;;;;;;;11.00;8.35;;;;;;;5.67;87.34;99313.70;1782367;80;25812;-75
2022/04/06 08:24:37;;;;;;;24.77;18.92;;;;;;;5.68;87.69;99318.85;1782894;80;26193;-75
2022/04/06 08:27:03;;;;;;;21.20;15.68;;;;;;;5.67;88.02;99321.67;1763247;80;27443;-75
2022/04/06 08:29:30;;;;;;;18.77;11.28;;;;;;;5.67;88.17;99311.88;1734908;81;25835;-75
2022/04/06 08:34:27;;;;;;;17.07;11.30;;;;;;;5.77;87.92;99308.94;1782158;78;25615;-76
2022/04/06 08:36:53;;;;;;;16.48;12.47;;;;;;;5.76;88.09;99308.11;1709555;82;25790;-76
2022/04/06 08:39:19;;;;;;;16.97;11.68;;;;;;;5.76;87.92;99313.91;1711846;82;28351;-76
2022/04/06 08:41:46;;;;;;;20.77;15.35;;;;;;;5.76;87.92;99308.11;1714846;82;25829;-76
2022/04/06 08:44:12;;;;;;;18.95;13.28;;;;;;;5.79;88.20;99311.73;1672533;83;25882;-76
2022/04/06 08:46:41;;;;;;;30.27;22.25;;;;;;;5.82;88.18;99303.86;1694178;83;26507;-76
2022/04/06 08:49:08;;;;;;;21.23;15.28;;;;;;;5.86;88.62;99311.84;1675634;84;25760;-76
2022/04/06 08:51:36;;;;;;;16.15;12.33;;;;;;;5.89;88.76;99315.42;1709554;82;27554;-76
2022/04/06 08:54:04;;;;;;;17.45;12.65;;;;;;;5.85;88.32;99314.99;1703614;82;25904;-76
2022/04/06 08:56:30;;;;;;;22.48;15.88;;;;;;;5.81;88.33;99309.70;1703851;83;25823;-76
2022/04/06 08:58:58;;;;;;;38.08;23.57;;;;;;;5.80;88.73;99309.88;1709400;82;25788;-76
2022/04/06 09:01:24;;;;;;;17.20;12.45;;;;;;;5.80;88.61;99300.57;1726641;81;26452;-76
2022/04/06 09:03:51;;;;;;;17.80;14.40;;;;;;;5.83;88.64;99301.04;1712275;81;27444;-76
2022/04/06 09:06:18;;;;;;;16.67;12.25;;;;;;;5.82;88.69;99303.86;1706876;82;25785;-76
2022/04/06 09:08:47;;;;;;;15.13;12.23;;;;;;;5.81;88.46;99306.22;1707986;83;25771;-75
2022/04/06 09:11:17;;;;;;;13.55;11.85;;;;;;;5.82;88.64;99300.70;1711198;82;25745;-76
2022/04/06 09:13:46;;;;;;;15.80;12.83;;;;;;;5.81;88.50;99301.73;1712057;81;25906;-76
2022/04/06 09:16:18;;;;;;;15.65;13.25;;;;;;;5.77;88.56;99299.14;1708132;82;27462;-76
2022/04/06 09:18:46;;;;;;;15.65;12.63;;;;;;;5.80;88.71;99300.57;1681304;83;25811;-76
2022/04/06 09:21:17;;;;;;;18.05;14.60;;;;;;;5.85;88.92;99300.87;1703481;82;25914;-76
2022/04/06 09:23:49;;;;;;;21.25;15.38;;;;;;;5.83;88.89;99301.54;1700123;82;26014;-75
2022/04/06 09:26:21;;;;;;;30.10;19.27;;;;;;;5.85;89.04;99296.39;1703017;82;25905;-76
2022/04/06 09:28:50;;;;;;;25.37;20.35;;;;;;;5.86;89.10;99299.34;1731106;82;27473;-75
2022/04/06 09:31:19;;;;;;;26.45;19.90;;;;;;;5.90;89.21;99297.95;1719760;83;26530;-75
2022/04/06 09:34:00;;;;;;;23.70;16.85;;;;;;;5.93;89.39;99293.61;1715070;82;26045;-75
2022/04/06 09:36:29;;;;;;;24.82;17.67;;;;;;;5.97;89.57;99292.22;1725404;82;26022;-75
2022/04/06 09:38:55;;;;;;;24.00;19.30;;;;;;;6.03;89.77;99292.78;1714472;81;26478;-76
2022/04/06 09:41:21;;;;;;;26.82;19.73;;;;;;;6.05;89.82;99305.38;1737320;82;27468;-76
2022/04/06 09:43:55;;;;;;;23.87;17.98;;;;;;;6.06;89.88;99315.01;1709762;83;25805;-76
2022/04/06 09:49:18;;;;;;;21.20;15.20;;;;;;;6.17;90.13;99289.75;1719384;82;25965;-76
2022/04/06 09:51:52;;;;;;;19.77;14.80;;;;;;;6.22;90.36;99280.71;1714195;82;25506;-76
2022/04/06 09:54:19;;;;;;;25.05;17.45;;;;;;;6.28;90.39;99279.94;1687465;83;28298;-76
2022/04/06 09:56:46;;;;;;;20.37;15.53;;;;;;;6.29;90.32;99276.78;1699139;83;25760;-76
2022/04/06 09:59:15;;;;;;;26.02;17.62;;;;;;;6.26;90.08;99275.83;1720116;82;25746;-76
2022/04/06 10:01:52;;;;;;;29.70;21.55;;;;;;;6.24;90.00;99268.84;1714268;82;25308;-76
2022/04/06 10:04:25;;;;;;;32.20;22.85;;;;;;;6.26;90.37;99260.70;1714148;83;25856;-76
2022/04/06 10:06:52;;;;;;;30.10;21.57;;;;;;;6.27;90.39;99259.67;1722986;82;27488;-76
2022/04/06 10:09:19;;;;;;;24.80;18.07;;;;;;;6.30;90.51;99263.78;1722957;81;25753;-76
2022/04/06 10:11:45;;;;;;;26.25;19.15;;;;;;;6.35;90.52;99268.84;1720140;83;25724;-76
2022/04/06 10:14:12;;;;;;;27.37;19.00;;;;;;;6.40;90.55;99269.59;1703893;82;26658;-76
2022/04/06 10:16:39;;;;;;;28.42;20.55;;;;;;;6.45;90.82;99262.70;1697316;82;26541;-76
2022/04/06 10:19:07;;;;;;;29.85;21.23;;;;;;;6.50;90.98;99261.59;1683780;82;27446;-76
2022/04/06 10:21:56;;;;;;;33.63;24.40;;;;;;;6.55;91.22;99252.53;1696329;82;26240;-76
2022/04/06 10:25:04;;;;;;;31.23;22.82;;;;;;;6.61;91.28;99254.91;1680476;83;25830;-76
2022/04/06 10:27:39;;;;;;;28.35;20.65;;;;;;;6.68;91.34;99257.13;1678048;83;26454;-76
2022/04/06 10:30:20;;;;;;;25.48;18.62;;;;;;;6.71;91.43;99253.59;1710455;82;25628;-76
2022/04/06 10:32:50;;;;;;;23.90;17.75;;;;;;;6.79;91.68;99254.76;1719311;83;28316;-76
2022/04/06 10:35:27;;;;;;;22.82;18.50;;;;;;;6.88;91.95;99250.10;1703520;82;25880;-76
2022/04/06 10:37:58;;;;;;;25.82;19.45;;;;;;;6.96;92.25;99249.44;1725194;82;25795;-76
2022/04/06 10:40:48;;;;;;;24.20;19.55;;;;;;;7.05;92.42;99250.60;1705125;82;26419;-75
2022/04/06 10:43:40;;;;;;;24.92;18.20;;;;;;;7.10;92.64;99247.64;1707194;82;25864;-76
2022/04/06 10:46:16;;;;;;;24.57;19.55;;;;;;;7.15;92.28;99245.73;1708686;83;27465;-76
2022/04/06 10:49:10;;;;;;;29.02;20.85;;;;;;;7.18;92.52;99236.85;1695465;82;25578;-76
2022/04/06 10:51:39;;;;;;;24.00;19.62;;;;;;;7.20;92.27;99236.64;1704913;82;26563;-76
2022/04/06 10:54:20;;;;;;;28.17;20.25;;;;;;;7.20;92.21;99238.81;1709820;82;25882;-76
2022/04/06 10:56:53;;;;;;;29.10;21.42;;;;;;;7.25;92.28;99230.22;1714028;82;25826;-75
2022/04/06 10:59:23;;;;;;;26.85;19.80;;;;;;;7.28;92.43;99227.97;1715352;82;28224;-75
2022/04/06 11:02:25;;;;;;;30.52;21.42;;;;;;;7.31;92.47;99223.59;1717394;81;25754;-75
2022/04/06 11:04:52;;;;;;;26.17;19.92;;;;;;;7.35;92.73;99221.34;1699820;82;25980;-75
2022/04/06 11:10:28;;;;;;;26.37;20.17;;;;;;;7.50;93.51;99230.00;1709267;82;26492;-75
2022/04/06 11:13:06;;;;;;;25.55;20.02;;;;;;;7.55;93.50;99223.04;1726133;82;27094;-75
2022/04/06 11:15:40;;;;;;;27.73;20.70;;;;;;;7.60;93.52;99224.61;1713491;82;25755;-75
2022/04/06 11:18:47;;;;;;;25.05;20.12;;;;;;;7.66;93.47;99225.13;1698345;82;25756;-75
2022/04/06 11:21:15;;;;;;;28.67;20.43;;;;;;;7.70;93.59;99226.36;1705227;82;25717;-75
2022/04/06 11:23:42;;;;;;;29.52;21.70;;;;;;;7.83;94.50;99215.44;1719766;83;26465;-75
2022/04/06 11:26:09;;;;;;;29.87;22.80;;;;;;;7.96;95.12;99214.09;1696536;82;27475;-75
2022/04/06 11:28:35;;;;;;;30.77;22.05;;;;;;;8.07;95.12;99205.50;1722938;82;25840;-75
2022/04/06 11:31:03;;;;;;;29.65;22.02;;;;;;;8.20;95.61;99202.84;1693418;82;25778;-75
2022/04/06 11:33:40;;;;;;;29.32;22.90;;;;;;;8.34;95.58;99209.86;1719673;83;25755;-75
2022/04/06 11:36:19;;;;;;;30.88;23.50;;;;;;;8.43;95.66;99209.94;1682618;82;25944;-75
2022/04/06 11:38:50;;;;;;;29.63;22.15;;;;;;;8.54;95.92;99207.98;1710589;82;28504;-75
2022/04/06 11:41:18;;;;;;;;;;;;;;;8.64;95.86;99203.56;1704653;83;25816;-76
2022/04/06 11:43:44;;;;;;;27.98;21.35;;;;;;;8.76;96.07;99207.22;1703039;82;25835;-75
2022/04/06 11:46:10;;;;;;;29.42;21.55;;;;;;;8.86;96.49;99203.59;1699830;83;25842;-75